Time;durP1;ratioP1;P1;durP2;ratioP2;P2;SDS_P1;SDS_P2;PMS_P1;PMS_P2;Temp;Humidity;BMP_temperature;BMP_pressure;BME280_temperature;BME280_humidity;BME280_pressure;Samples;Min_cycle;Max_cycle;Signal;HPM_P1;HPM_P2
2023/03/22 00:00:50;;;;;;;6.90;5.00;;;10.90;99.90;;;;;;5008977;28;20507;-86
2023/03/22 00:03:16;;;;;;;7.00;5.10;;;10.80;99.90;;;;;;5010556;28;20440;-83
2023/03/22 00:05:41;;;;;;;9.93;5.47;;;10.90;99.90;;;;;;4994053;28;20434;-81
2023/03/22 00:08:08;;;;;;;9.07;6.10;;;10.90;99.90;;;;;;4994651;28;20219;-84
2023/03/22 00:10:35;;;;;;;8.07;5.83;;;10.90;99.90;;;;;;4993340;28;20577;-88
2023/03/22 00:13:01;;;;;;;10.53;6.20;;;10.90;99.90;;;;;;4996292;28;20491;-88
2023/03/22 00:15:28;;;;;;;11.53;6.30;;;10.90;99.90;;;;;;4995577;28;20511;-79
2023/03/22 00:17:54;;;;;;;9.97;7.00;;;10.80;99.90;;;;;;4995235;28;20173;-80
2023/03/22 00:20:22;;;;;;;10.20;6.30;;;10.90;99.90;;;;;;4992914;28;20938;-86
2023/03/22 00:22:48;;;;;;;9.77;6.40;;;10.90;99.90;;;;;;4986716;28;20502;-87
2023/03/22 00:25:13;;;;;;;8.00;6.20;;;10.80;99.90;;;;;;4994858;28;20423;-83
2023/03/22 00:27:39;;;;;;;8.50;5.60;;;10.70;99.90;;;;;;4995111;28;20164;-79
2023/03/22 00:30:05;;;;;;;9.00;6.33;;;10.80;99.90;;;;;;4994815;28;20636;-83
2023/03/22 00:32:34;;;;;;;10.17;7.20;;;10.60;99.90;;;;;;4994909;28;20181;-77
2023/03/22 00:35:03;;;;;;;11.13;6.57;;;10.60;99.90;;;;;;4993250;28;20428;-82
2023/03/22 00:37:33;;;;;;;8.33;6.43;;;10.60;99.90;;;;;;4994058;28;20430;-80
2023/03/22 00:39:59;;;;;;;7.73;5.60;;;10.60;99.90;;;;;;5008690;28;20430;-80
2023/03/22 00:42:25;;;;;;;10.00;6.53;;;10.60;99.90;;;;;;4994736;28;20415;-80
2023/03/22 00:44:50;;;;;;;8.53;6.60;;;10.50;99.90;;;;;;4994471;28;20436;-81
2023/03/22 00:47:16;;;;;;;8.90;6.23;;;10.60;99.90;;;;;;4954236;28;20272;-77
2023/03/22 00:49:41;;;;;;;13.43;7.73;;;10.70;99.90;;;;;;4994403;28;20208;-77
2023/03/22 00:52:07;;;;;;;9.07;7.80;;;10.70;99.90;;;;;;4992149;28;20210;-78
2023/03/22 00:54:32;;;;;;;11.17;5.87;;;10.80;99.90;;;;;;4994321;28;20179;-81
2023/03/22 00:56:58;;;;;;;13.77;7.20;;;10.80;99.90;;;;;;4994533;28;20560;-78
2023/03/22 00:59:23;;;;;;;9.27;7.13;;;10.80;99.90;;;;;;4993550;28;20286;-77
2023/03/22 01:01:49;;;;;;;9.30;7.20;;;10.80;99.90;;;;;;4994382;28;20717;-84
2023/03/22 01:04:24;;;;;;;10.53;6.40;;;10.80;99.90;;;;;;4993360;28;20182;-79
2023/03/22 01:06:50;;;;;;;11.10;8.00;;;10.80;99.90;;;;;;4989756;28;20180;-77
2023/03/22 01:09:16;;;;;;;10.43;6.60;;;10.90;99.90;;;;;;4978630;28;20468;-77
2023/03/22 01:11:42;;;;;;;8.13;6.93;;;10.90;99.90;;;;;;4994041;28;20429;-78
2023/03/22 01:14:08;;;;;;;11.53;7.80;;;10.90;99.90;;;;;;4993999;28;20260;-77
2023/03/22 01:16:37;;;;;;;13.90;7.00;;;10.80;99.90;;;;;;4994009;28;20499;-78
2023/03/22 01:19:02;;;;;;;8.63;7.40;;;10.80;99.90;;;;;;4993745;28;20419;-77
2023/03/22 01:21:28;;;;;;;12.90;9.07;;;10.80;99.90;;;;;;4993977;28;20849;-78
2023/03/22 01:23:54;;;;;;;8.87;6.87;;;10.80;99.90;;;;;;4993540;28;20169;-82
2023/03/22 01:26:19;;;;;;;9.63;7.47;;;10.80;99.90;;;;;;4993083;28;20178;-84
2023/03/22 01:28:45;;;;;;;11.07;7.00;;;10.80;99.90;;;;;;4993650;28;20223;-81
2023/03/22 01:31:10;;;;;;;11.17;7.30;;;10.80;99.90;;;;;;5009032;28;20181;-82
2023/03/22 01:33:36;;;;;;;13.07;8.43;;;10.80;99.90;;;;;;4994664;28;20199;-84
2023/03/22 01:36:03;;;;;;;9.60;7.33;;;10.80;99.90;;;;;;4993009;28;20180;-83
2023/03/22 01:38:32;;;;;;;9.70;7.93;;;10.90;99.90;;;;;;4993750;28;20447;-84
2023/03/22 01:40:58;;;;;;;11.67;7.87;;;10.80;99.90;;;;;;4991643;28;20442;-85
2023/03/22 01:43:23;;;;;;;9.60;7.20;;;10.70;99.90;;;;;;4994218;28;20452;-85
2023/03/22 01:45:51;;;;;;;12.20;7.10;;;10.70;99.90;;;;;;5009141;28;20208;-83
2023/03/22 01:48:34;;;;;;;12.23;7.60;;;10.70;99.90;;;;;;4993857;28;20634;-85
2023/03/22 01:51:08;;;;;;;15.23;7.73;;;10.80;99.90;;;;;;4993610;28;20562;-85
2023/03/22 01:53:39;;;;;;;12.87;8.17;;;10.80;99.90;;;;;;4993382;28;20423;-86
2023/03/22 01:56:06;;;;;;;12.33;7.50;;;10.90;99.90;;;;;;4993548;28;20411;-85
2023/03/22 01:58:34;;;;;;;11.37;8.43;;;10.90;99.90;;;;;;4993478;28;20470;-84
2023/03/22 02:01:01;;;;;;;12.70;8.00;;;10.90;99.90;;;;;;4993589;28;20915;-85
2023/03/22 02:03:48;;;;;;;9.93;7.40;;;10.80;99.90;;;;;;4993303;28;20407;-85
2023/03/22 02:06:14;;;;;;;9.20;6.93;;;10.90;99.90;;;;;;5008434;28;20480;-83
2023/03/22 02:08:41;;;;;;;10.40;7.97;;;10.90;99.90;;;;;;4992797;28;20415;-80
2023/03/22 02:11:10;;;;;;;8.57;6.03;;;10.90;99.90;;;;;;4992985;28;20987;-83
2023/03/22 02:13:47;;;;;;;9.23;7.03;;;11.00;99.90;;;;;;5008686;28;20918;-83
2023/03/22 02:16:43;;;;;;;12.03;8.93;;;11.00;99.90;;;;;;4992263;28;20428;-84
2023/03/22 02:19:50;;;;;;;10.90;7.33;;;11.00;99.90;;;;;;4992578;28;20486;-83
2023/03/22 02:22:47;;;;;;;9.87;6.70;;;11.00;99.90;;;;;;4952581;28;20483;-82
2023/03/22 02:25:29;;;;;;;9.80;6.57;;;11.00;99.90;;;;;;4991135;28;20921;-81
2023/03/22 02:28:07;;;;;;;8.57;7.63;;;11.00;99.90;;;;;;4991333;28;20428;-82
2023/03/22 02:31:00;;;;;;;10.60;8.00;;;11.00;99.90;;;;;;5007910;28;21196;-82
2023/03/22 02:33:58;;;;;;;11.60;8.27;;;11.10;99.90;;;;;;4991221;28;20834;-82
2023/03/22 02:36:58;;;;;;;12.93;7.40;;;11.00;99.90;;;;;;4991825;28;20865;-83
2023/03/22 02:39:40;;;;;;;12.70;7.77;;;10.90;99.90;;;;;;4991684;28;20433;-83
2023/03/22 02:42:28;;;;;;;14.70;6.57;;;10.90;99.90;;;;;;4973930;28;20408;-82
2023/03/22 02:45:11;;;;;;;8.50;6.57;;;10.80;99.90;;;;;;4973837;28;20413;-83
2023/03/22 02:47:40;;;;;;;9.67;6.73;;;10.90;99.90;;;;;;4973779;28;20450;-83
2023/03/22 02:50:21;;;;;;;10.30;7.70;;;10.80;99.90;;;;;;4973762;28;20482;-82
2023/03/22 02:53:01;;;;;;;10.53;7.20;;;10.90;99.90;;;;;;4973414;28;20889;-84
2023/03/22 02:55:39;;;;;;;10.30;7.00;;;10.90;99.90;;;;;;4973725;28;20503;-81
2023/03/22 02:58:16;;;;;;;11.40;7.20;;;10.80;99.90;;;;;;4973773;28;20495;-84
2023/03/22 03:00:45;;;;;;;9.90;7.30;;;10.90;99.90;;;;;;4973649;28;20482;-81
2023/03/22 03:03:13;;;;;;;12.90;8.23;;;10.90;99.90;;;;;;4973600;28;20782;-84
2023/03/22 03:05:43;;;;;;;9.83;6.60;;;10.90;99.90;;;;;;4988181;28;20963;-81
2023/03/22 03:08:11;;;;;;;8.73;6.20;;;10.80;99.90;;;;;;4990732;28;20425;-83
2023/03/22 03:10:39;;;;;;;11.70;6.53;;;10.80;99.90;;;;;;4990690;28;20575;-84
2023/03/22 03:13:05;;;;;;;9.27;6.73;;;10.70;99.90;;;;;;4992873;28;20471;-84
2023/03/22 03:15:31;;;;;;;8.97;6.03;;;10.70;99.90;;;;;;4995128;28;20463;-84
2023/03/22 03:18:17;;;;;;;11.50;7.33;;;10.70;99.90;;;;;;4996707;28;20203;-83
2023/03/22 03:21:16;;;;;;;8.97;6.33;;;10.70;99.90;;;;;;4996772;28;20425;-84
2023/03/22 03:24:14;;;;;;;13.97;7.93;;;10.80;99.90;;;;;;4996355;28;20765;-83
2023/03/22 03:26:55;;;;;;;11.73;7.20;;;10.80;99.90;;;;;;4996675;28;20447;-84
2023/03/22 03:29:29;;;;;;;11.20;7.37;;;10.80;99.90;;;;;;4996386;28;20989;-84
2023/03/22 03:32:10;;;;;;;7.03;5.43;;;10.70;99.90;;;;;;4996439;28;20399;-82
2023/03/22 03:35:09;;;;;;;7.77;6.50;;;10.80;99.90;;;;;;4995575;28;20523;-79
2023/03/22 03:37:40;;;;;;;12.97;8.10;;;10.70;99.90;;;;;;5011174;28;20473;-80
2023/03/22 03:40:16;;;;;;;15.23;7.83;;;10.80;99.90;;;;;;4995169;28;20530;-79
2023/03/22 03:42:48;;;;;;;8.83;6.83;;;10.70;99.90;;;;;;4996384;28;20467;-79
2023/03/22 03:45:15;;;;;;;10.10;7.27;;;10.80;99.90;;;;;;4995610;28;20419;-80
2023/03/22 03:47:43;;;;;;;12.03;7.50;;;10.80;99.90;;;;;;4995526;28;20985;-79
2023/03/22 03:50:15;;;;;;;11.50;8.10;;;10.80;99.90;;;;;;4995165;28;20481;-82
2023/03/22 03:52:44;;;;;;;12.40;7.10;;;10.80;99.90;;;;;;4996133;28;20506;-82
2023/03/22 03:55:13;;;;;;;10.63;7.73;;;10.80;99.90;;;;;;4996438;28;20428;-83
2023/03/22 03:57:39;;;;;;;10.97;8.43;;;11.00;99.90;;;;;;4996336;28;20818;-81
2023/03/22 04:00:27;;;;;;;9.60;6.90;;;10.80;99.90;;;;;;4994895;28;20513;-82
2023/03/22 04:02:54;;;;;;;12.23;7.93;;;10.90;99.90;;;;;;4995214;28;20581;-81
2023/03/22 04:05:21;;;;;;;11.40;6.83;;;10.80;99.90;;;;;;4995928;28;20415;-79
2023/03/22 04:07:49;;;;;;;10.33;7.40;;;10.80;99.90;;;;;;4995550;28;20468;-82
2023/03/22 04:10:16;;;;;;;11.60;7.07;;;10.80;99.90;;;;;;4994629;28;20558;-83
2023/03/22 04:12:41;;;;;;;8.27;7.07;;;10.90;99.90;;;;;;4994752;28;20462;-82
2023/03/22 04:15:30;;;;;;;7.67;6.13;;;10.90;99.90;;;;;;5011070;28;20481;-83
2023/03/22 04:17:56;;;;;;;10.23;6.90;;;10.90;99.90;;;;;;4994868;28;20211;-83
2023/03/22 04:20:34;;;;;;;12.80;6.93;;;10.90;99.90;;;;;;4994560;28;20453;-84
2023/03/22 04:23:01;;;;;;;10.40;7.37;;;10.90;99.90;;;;;;4995485;28;20404;-84
2023/03/22 04:25:32;;;;;;;8.70;6.40;;;10.90;99.90;;;;;;4995435;28;20426;-85
2023/03/22 04:28:03;;;;;;;7.40;5.13;;;10.90;99.90;;;;;;4995814;28;20839;-84
2023/03/22 04:30:56;;;;;;;8.07;5.90;;;10.90;99.90;;;;;;4994641;28;20961;-85
2023/03/22 04:33:25;;;;;;;10.20;6.20;;;11.00;99.90;;;;;;4995648;28;20499;-84
2023/03/22 04:35:59;;;;;;;10.30;6.00;;;11.00;99.90;;;;;;4995633;28;20889;-86
2023/03/22 04:38:25;;;;;;;7.33;6.37;;;11.10;99.90;;;;;;4995294;28;20496;-86
2023/03/22 04:40:50;;;;;;;10.00;7.23;;;11.10;99.90;;;;;;4995587;28;20170;-88
2023/03/22 04:43:17;;;;;;;8.43;6.03;;;11.00;99.90;;;;;;4994281;28;20231;-84
2023/03/22 04:45:45;;;;;;;6.97;5.20;;;10.90;99.90;;;;;;4994155;28;20172;-85
2023/03/22 04:48:10;;;;;;;6.93;5.10;;;11.00;99.90;;;;;;4954925;28;20435;-84
2023/03/22 04:50:38;;;;;;;9.60;5.80;;;11.00;99.90;;;;;;4995277;28;20475;-84
2023/03/22 04:53:04;;;;;;;8.50;5.97;;;10.80;99.90;;;;;;4994942;28;20419;-85
2023/03/22 04:55:29;;;;;;;7.53;5.00;;;10.70;99.90;;;;;;4995244;28;20419;-85
2023/03/22 04:57:55;;;;;;;7.77;4.83;;;10.80;99.90;;;;;;4995202;28;20172;-85
2023/03/22 05:00:21;;;;;;;8.00;5.37;;;10.90;99.90;;;;;;4994916;28;20228;-86
2023/03/22 05:02:47;;;;;;;5.67;4.13;;;10.90;99.90;;;;;;4995129;28;20524;-85
2023/03/22 05:05:13;;;;;;;7.70;4.80;;;10.80;99.90;;;;;;4995069;28;20406;-83
2023/03/22 05:07:38;;;;;;;7.63;5.50;;;10.80;99.90;;;;;;4994599;28;20413;-84
2023/03/22 05:10:05;;;;;;;8.60;5.67;;;10.80;99.90;;;;;;4994844;28;20246;-84
2023/03/22 05:12:31;;;;;;;9.47;5.87;;;10.80;99.90;;;;;;4993602;28;20217;-84
2023/03/22 05:14:56;;;;;;;10.73;5.03;;;10.70;99.90;;;;;;4994863;28;20421;-84
2023/03/22 05:17:22;;;;;;;8.20;5.73;;;10.80;99.90;;;;;;4994897;28;20171;-84
2023/03/22 05:19:47;;;;;;;7.30;4.90;;;10.70;99.90;;;;;;5009905;28;20699;-83
2023/03/22 05:22:13;;;;;;;10.63;5.40;;;10.70;99.90;;;;;;5009790;28;20239;-83
2023/03/22 05:24:39;;;;;;;7.07;5.40;;;10.70;99.90;;;;;;4994468;28;20256;-83
2023/03/22 05:27:05;;;;;;;11.57;5.07;;;10.70;99.90;;;;;;4994585;28;20622;-83
2023/03/22 05:29:35;;;;;;;8.27;4.33;;;10.60;99.90;;;;;;4994431;28;20528;-83
2023/03/22 05:32:04;;;;;;;8.90;5.67;;;10.70;99.90;;;;;;5009670;28;20176;-80
2023/03/22 05:34:34;;;;;;;9.97;5.80;;;10.70;99.90;;;;;;4994580;28;20486;-82
2023/03/22 05:37:01;;;;;;;6.43;5.53;;;10.80;99.90;;;;;;5008947;28;20780;-81
2023/03/22 05:39:28;;;;;;;6.53;5.10;;;10.80;99.90;;;;;;4994040;28;20416;-82
2023/03/22 05:41:54;;;;;;;7.73;5.53;;;10.80;99.90;;;;;;4994307;28;20412;-79
2023/03/22 05:44:19;;;;;;;10.40;4.60;;;10.80;99.90;;;;;;4994302;28;20437;-82
2023/03/22 05:46:45;;;;;;;8.77;5.43;;;10.70;99.90;;;;;;4994316;28;20641;-85
2023/03/22 05:49:11;;;;;;;9.00;4.83;;;10.80;99.90;;;;;;4994220;28;20327;-83
2023/03/22 05:51:40;;;;;;;8.40;5.80;;;10.80;99.90;;;;;;4994256;28;20185;-79
2023/03/22 05:54:07;;;;;;;7.30;4.60;;;10.80;99.90;;;;;;4993764;28;20172;-83
2023/03/22 05:56:34;;;;;;;6.87;4.17;;;11.00;99.90;;;;;;4994059;28;20425;-85
2023/03/22 05:59:00;;;;;;;10.07;5.00;;;10.90;99.90;;;;;;4994030;28;20460;-85
2023/03/22 06:01:27;;;;;;;7.63;3.90;;;11.00;99.90;;;;;;4994082;28;20412;-84
2023/03/22 06:03:52;;;;;;;7.10;4.40;;;11.00;99.90;;;;;;4994019;28;20698;-85
2023/03/22 06:06:19;;;;;;;6.83;3.90;;;11.00;99.90;;;;;;4993908;28;20863;-84
2023/03/22 06:08:45;;;;;;;6.47;3.93;;;11.10;99.90;;;;;;4993501;28;20180;-84
2023/03/22 06:11:10;;;;;;;8.40;4.03;;;11.00;99.90;;;;;;5008954;28;20802;-84
2023/03/22 06:13:36;;;;;;;9.23;4.70;;;11.00;99.90;;;;;;4993792;28;20659;-84
2023/03/22 06:16:03;;;;;;;5.97;3.43;;;11.10;99.90;;;;;;4993821;28;20173;-85
2023/03/22 06:18:29;;;;;;;10.33;4.97;;;11.10;99.90;;;;;;4993697;28;20459;-84
2023/03/22 06:20:59;;;;;;;9.63;4.43;;;11.20;99.90;;;;;;4993562;28;20770;-85
2023/03/22 06:23:24;;;;;;;7.40;3.60;;;11.30;99.90;;;;;;4992120;28;20414;-78
2023/03/22 06:25:50;;;;;;;5.90;3.90;;;11.30;99.90;;;;;;4993659;28;20419;-84
2023/03/22 06:28:16;;;;;;;8.43;5.50;;;11.30;99.90;;;;;;4993634;28;20176;-82
2023/03/22 06:30:41;;;;;;;6.73;4.50;;;11.20;99.90;;;;;;4993427;28;20748;-83
2023/03/22 06:33:07;;;;;;;8.63;5.10;;;11.30;99.90;;;;;;4993545;28;20199;-83
2023/03/22 06:35:33;;;;;;;7.70;4.17;;;11.30;99.90;;;;;;4993520;28;20192;-84
2023/03/22 06:37:59;;;;;;;8.63;5.60;;;11.30;99.90;;;;;;4993455;28;20200;-84
2023/03/22 06:40:25;;;;;;;6.03;3.50;;;11.40;99.90;;;;;;4993541;28;20518;-85
2023/03/22 06:42:50;;;;;;;9.60;3.60;;;11.60;99.90;;;;;;4993617;28;20410;-84
2023/03/22 06:45:16;;;;;;;8.37;3.63;;;11.60;99.90;;;;;;4993489;28;20418;-84
2023/03/22 06:47:43;;;;;;;8.37;4.70;;;11.60;99.90;;;;;;4993289;28;20172;-85
2023/03/22 06:50:09;;;;;;;7.10;4.23;;;11.60;99.90;;;;;;4997019;28;20585;-83
2023/03/22 06:52:34;;;;;;;6.20;4.43;;;11.60;99.90;;;;;;4996960;28;20413;-80
2023/03/22 06:55:00;;;;;;;8.13;4.30;;;11.60;99.90;;;;;;4997425;28;20437;-84
2023/03/22 06:57:25;;;;;;;8.00;4.70;;;11.70;99.90;;;;;;4997385;28;20177;-84
2023/03/22 06:59:51;;;;;;;9.20;4.50;;;11.80;99.90;;;;;;4956847;28;20860;-83
2023/03/22 07:02:16;;;;;;;5.80;3.10;;;12.00;99.90;;;;;;4997446;28;20182;-85
2023/03/22 07:04:44;;;;;;;6.37;4.23;;;12.00;84.20;;;;;;4997291;28;20209;-84
2023/03/22 07:07:09;;;;;;;6.43;4.43;;;11.90;77.20;;;;;;4996969;28;20180;-81
2023/03/22 07:09:35;;;;;;;6.73;5.23;;;11.90;99.90;;;;;;4997015;28;20548;-80
2023/03/22 07:12:03;;;;;;;6.20;4.33;;;11.80;99.90;;;;;;4997012;28;20177;-84
2023/03/22 07:14:29;;;;;;;9.50;4.97;;;11.80;99.90;;;;;;4997029;28;20684;-85
2023/03/22 07:16:55;;;;;;;8.73;4.57;;;11.80;99.90;;;;;;5028416;28;20433;-83
2023/03/22 07:19:20;;;;;;;8.73;5.07;;;12.00;99.90;;;;;;5028528;28;20487;-85
2023/03/22 07:21:47;;;;;;;7.60;4.87;;;11.90;99.90;;;;;;4996967;28;20662;-85
2023/03/22 07:24:12;;;;;;;5.23;4.33;;;11.90;99.90;;;;;;4994644;28;20640;-82
2023/03/22 07:26:38;;;;;;;9.20;4.37;;;12.00;99.90;;;;;;4996675;28;20478;-84
2023/03/22 07:29:04;;;;;;;6.87;6.07;;;12.10;99.90;;;;;;5011661;28;20264;-87
2023/03/22 07:31:30;;;;;;;7.30;4.70;;;12.00;99.90;;;;;;4996665;28;20524;-85
2023/03/22 07:33:55;;;;;;;7.03;4.73;;;12.10;99.90;;;;;;5011454;28;20222;-83
2023/03/22 07:36:22;;;;;;;8.90;6.00;;;12.10;99.90;;;;;;5011781;28;20959;-85
2023/03/22 07:38:49;;;;;;;7.80;4.67;;;12.10;60.60;;;;;;4996294;28;20650;-79
2023/03/22 07:41:15;;;;;;;9.57;5.67;;;12.00;95.90;;;;;;4996720;28;20420;-88
2023/03/22 07:43:41;;;;;;;6.10;4.40;;;12.00;99.90;;;;;;5011933;28;20420;-82
2023/03/22 07:46:06;;;;;;;8.80;4.43;;;12.10;99.00;;;;;;4996737;28;20272;-89
2023/03/22 07:48:33;;;;;;;9.20;5.60;;;12.10;96.30;;;;;;4996916;28;20182;-87
2023/03/22 07:50:58;;;;;;;8.73;6.20;;;12.10;72.40;;;;;;5013851;28;20214;-79
2023/03/22 07:53:24;;;;;;;7.80;5.07;;;12.10;99.90;;;;;;5011776;28;20421;-80
2023/03/22 07:55:59;;;;;;;11.60;7.30;;;12.20;99.90;;;;;;4996636;28;20174;-83
2023/03/22 07:58:26;;;;;;;12.10;6.83;;;12.20;95.30;;;;;;4996746;28;20222;-84
2023/03/22 08:00:51;;;;;;;7.37;6.50;;;12.30;90.40;;;;;;4995456;28;20438;-81
2023/03/22 08:03:17;;;;;;;8.87;6.37;;;12.40;76.50;;;;;;4955557;28;20921;-78
2023/03/22 08:05:43;;;;;;;10.53;6.27;;;12.40;21.20;;;;;;5011520;28;20182;-81
2023/03/22 08:08:08;;;;;;;7.40;5.70;;;12.50;16.90;;;;;;5010751;28;20579;-86
2023/03/22 08:10:34;;;;;;;11.03;7.20;;;12.50;22.10;;;;;;5011199;28;20222;-88
2023/03/22 08:13:00;;;;;;;11.80;6.60;;;12.40;29.90;;;;;;4994734;28;20187;-87
2023/03/22 08:15:25;;;;;;;8.13;6.10;;;12.40;43.40;;;;;;4996022;28;20181;-87
2023/03/22 08:17:51;;;;;;;11.00;6.60;;;12.50;54.60;;;;;;4996038;28;20263;-86
2023/03/22 08:20:17;;;;;;;8.93;6.10;;;12.60;17.80;;;;;;4995957;28;20256;-86
2023/03/22 08:22:44;;;;;;;10.13;6.33;;;12.60;43.80;;;;;;4995850;28;20476;-87
2023/03/22 08:25:13;;;;;;;8.80;5.93;;;12.70;32.30;;;;;;4996616;28;20450;-84
2023/03/22 08:27:38;;;;;;;10.60;7.10;;;12.70;10.60;;;;;;4996047;28;20473;-85
2023/03/22 08:30:04;;;;;;;11.90;6.67;;;12.80;16.00;;;;;;4996125;28;20860;-90
2023/03/22 08:32:31;;;;;;;8.30;6.50;;;12.90;1.00;;;;;;4996586;28;20182;-87
2023/03/22 08:34:56;;;;;;;12.50;6.73;;;13.00;1.00;;;;;;4994891;28;20930;-86
2023/03/22 08:37:22;;;;;;;12.93;8.00;;;13.00;1.00;;;;;;5010758;28;20434;-83
2023/03/22 08:39:48;;;;;;;10.00;6.90;;;13.20;1.00;;;;;;5010830;28;20564;-85
2023/03/22 08:42:13;;;;;;;9.03;7.20;;;13.20;1.00;;;;;;5010506;28;20202;-86
2023/03/22 08:44:39;;;;;;;9.20;6.70;;;13.30;1.00;;;;;;4995515;28;20165;-82
2023/03/22 08:47:04;;;;;;;11.83;7.10;;;13.50;1.00;;;;;;4995411;28;20254;-83
2023/03/22 08:49:31;;;;;;;9.70;6.93;;;13.50;1.00;;;;;;5010363;28;20671;-84
2023/03/22 08:51:57;;;;;;;8.80;6.43;;;13.50;1.00;;;;;;4994825;28;20203;-84
2023/03/22 08:54:23;;;;;;;7.13;6.30;;;14.00;1.00;;;;;;4995282;28;20463;-82
2023/03/22 08:56:51;;;;;;;10.37;6.67;;;14.40;1.00;;;;;;4995239;28;20165;-84
2023/03/22 08:59:17;;;;;;;9.20;5.93;;;14.90;1.00;;;;;;4994886;28;20806;-81
2023/03/22 09:01:42;;;;;;;6.37;5.17;;;15.20;99.90;;;;;;4995166;28;20422;-83
2023/03/22 09:04:08;;;;;;;7.97;5.60;;;15.50;1.00;;;;;;4954031;28;20268;-83
2023/03/22 09:06:33;;;;;;;5.53;4.00;;;16.00;1.00;;;;;;4994980;28;20177;-85
2023/03/22 09:08:59;;;;;;;7.00;4.87;;;16.40;1.00;;;;;;4993974;28;20179;-83
2023/03/22 09:11:24;;;;;;;7.97;4.03;;;17.00;99.90;;;;;;4992335;28;20230;-81
2023/03/22 09:13:50;;;;;;;8.87;3.83;;;17.40;1.00;;;;;;4994125;28;20195;-86
2023/03/22 09:16:16;;;;;;;5.33;3.47;;;17.90;1.00;;;;;;4994732;28;20632;-80
2023/03/22 09:18:43;;;;;;;6.53;4.57;;;18.10;1.00;;;;;;4994594;28;20175;-83
2023/03/22 09:21:09;;;;;;;8.63;4.50;;;18.00;99.90;;;;;;4994656;28;20624;-79
2023/03/22 09:23:36;;;;;;;4.57;3.17;;;17.80;99.90;;;;;;4994432;28;20415;-83
2023/03/22 09:26:04;;;;;;;4.47;3.47;;;17.80;99.90;;;;;;4994569;28;20509;-80
2023/03/22 09:28:30;;;;;;;9.10;4.20;;;17.70;99.90;;;;;;4994579;28;20419;-86
2023/03/22 09:31:01;;;;;;;7.43;4.93;;;17.50;99.90;;;;;;4994479;28;20535;-84
2023/03/22 09:33:26;;;;;;;5.90;3.80;;;17.90;99.90;;;;;;4994413;28;20411;-84
2023/03/22 09:35:53;;;;;;;6.47;3.33;;;18.10;99.90;;;;;;4994462;28;20426;-83
2023/03/22 09:38:19;;;;;;;5.33;3.17;;;18.50;99.90;;;;;;4994071;28;20413;-85
2023/03/22 09:41:00;;;;;;;5.03;2.60;;;19.00;99.90;;;;;;4994302;28;20926;-85
2023/03/22 09:43:29;;;;;;;4.60;2.60;;;19.30;99.90;;;;;;4994453;28;20424;-84
2023/03/22 09:45:58;;;;;;;5.37;3.10;;;19.00;99.90;;;;;;4992892;28;20998;-87
2023/03/22 09:48:37;;;;;;;6.67;3.87;;;18.70;99.90;;;;;;4993126;28;20474;-86
2023/03/22 09:51:06;;;;;;;5.77;2.30;;;18.50;99.90;;;;;;4994131;28;20557;-82
2023/03/22 09:53:32;;;;;;;3.93;2.43;;;17.80;99.90;;;;;;4993693;28;20422;-86
2023/03/22 09:56:21;;;;;;;5.07;1.70;;;17.20;99.90;;;;;;4992989;28;20436;-84
2023/03/22 09:59:12;;;;;;;5.20;2.07;;;17.10;99.90;;;;;;4992511;28;20472;-85
2023/03/22 10:01:43;;;;;;;4.93;2.07;;;16.60;99.90;;;;;;5009122;28;20440;-87
2023/03/22 10:04:41;;;;;;;4.40;2.00;;;16.50;99.90;;;;;;4994243;28;20408;-90
2023/03/22 10:07:19;;;;;;;4.80;2.23;;;16.20;99.90;;;;;;4991320;28;20553;-80
2023/03/22 10:10:07;;;;;;;7.10;2.13;;;16.00;99.90;;;;;;5000138;28;20470;-81
2023/03/22 10:12:56;;;;;;;7.67;1.83;;;15.80;99.90;;;;;;4955256;28;20435;-85
2023/03/22 10:15:35;;;;;;;6.80;2.20;;;15.70;99.90;;;;;;5008694;28;20467;-80
2023/03/22 10:18:04;;;;;;;4.67;1.90;;;15.70;99.90;;;;;;4993375;28;20430;-82
2023/03/22 10:20:49;;;;;;;7.00;1.97;;;15.80;99.90;;;;;;4993270;28;20418;-87
2023/03/22 10:23:19;;;;;;;2.20;1.30;;;15.70;1.00;;;;;;4992771;28;20439;-81
2023/03/22 10:25:46;;;;;;;4.07;1.90;;;15.70;1.00;;;;;;5006980;28;20918;-86
2023/03/22 10:28:27;;;;;;;4.10;1.40;;;15.60;1.00;;;;;;4991352;28;20949;-81
2023/03/22 10:30:56;;;;;;;4.43;1.77;;;15.80;1.00;;;;;;4993306;28;20483;-82
2023/03/22 10:33:36;;;;;;;2.70;1.40;;;15.80;1.00;;;;;;5008434;28;20874;-87
2023/03/22 10:36:04;;;;;;;4.47;1.67;;;15.90;1.00;;;;;;4989955;28;20426;-82
2023/03/22 10:38:33;;;;;;;5.37;2.07;;;16.00;1.00;;;;;;5000278;28;20463;-83
2023/03/22 10:41:00;;;;;;;4.43;1.10;;;16.10;1.00;;;;;;4987498;28;20444;-82
2023/03/22 10:43:35;;;;;;;2.77;0.90;;;15.90;99.90;;;;;;4990963;28;20469;-87
2023/03/22 10:46:07;;;;;;;4.67;1.70;;;15.70;1.00;;;;;;4987431;28;20446;-85
2023/03/22 10:48:40;;;;;;;4.63;2.20;;;15.70;1.00;;;;;;4993615;28;20415;-83
2023/03/22 10:51:09;;;;;;;6.27;1.33;;;15.60;1.00;;;;;;4987902;28;20649;-80
2023/03/22 10:53:42;;;;;;;4.97;1.20;;;15.50;99.90;;;;;;4987140;28;20436;-82
2023/03/22 10:56:19;;;;;;;3.13;0.80;;;15.30;99.90;;;;;;4988388;28;20492;-87
2023/03/22 10:58:49;;;;;;;4.70;0.80;;;15.20;1.00;;;;;;4973230;28;20548;-83
2023/03/22 11:01:27;;;;;;;2.43;0.73;;;15.30;1.00;;;;;;4977221;28;20482;-82
2023/03/22 11:04:02;;;;;;;2.77;0.70;;;15.50;99.90;;;;;;4992670;28;20418;-85
2023/03/22 11:06:31;;;;;;;5.37;1.30;;;15.50;99.90;;;;;;4990952;28;20433;-79
2023/03/22 11:09:00;;;;;;;3.23;1.10;;;15.40;99.90;;;;;;5007179;28;20785;-83
2023/03/22 11:11:27;;;;;;;5.67;1.13;;;15.40;99.90;;;;;;4992529;28;20428;-83
2023/03/22 11:13:59;;;;;;;2.50;1.10;;;15.50;99.90;;;;;;4992866;28;20414;-85
2023/03/22 11:16:25;;;;;;;3.03;0.70;;;15.50;99.90;;;;;;4991664;28;20931;-83
2023/03/22 11:18:51;;;;;;;6.50;1.27;;;15.70;99.90;;;;;;4992012;28;20433;-84
2023/03/22 11:21:19;;;;;;;1.53;0.57;;;15.90;99.90;;;;;;4991408;28;20424;-84
2023/03/22 11:23:56;;;;;;;5.37;0.90;;;16.10;99.90;;;;;;4992955;28;20791;-80
2023/03/22 11:26:29;;;;;;;2.67;1.23;;;16.20;99.90;;;;;;4992393;28;20422;-81
2023/03/22 11:29:09;;;;;;;3.03;1.10;;;16.30;99.90;;;;;;4992989;28;20486;-91
2023/03/22 11:32:25;;;;;;;1.87;0.47;;;16.30;99.90;;;;;;4991721;28;20429;-87
2023/03/22 11:35:05;;;;;;;5.57;1.77;;;16.00;99.90;;;;;;4983018;28;20433;-80
2023/03/22 11:37:31;;;;;;;2.33;1.60;;;16.00;99.90;;;;;;4978489;28;20437;-80
2023/03/22 11:40:00;;;;;;;3.40;0.97;;;15.90;99.90;;;;;;4996158;28;20601;-81
2023/03/22 11:42:26;;;;;;;3.73;1.43;;;15.90;99.90;;;;;;4996301;28;20586;-81
2023/03/22 11:44:55;;;;;;;2.70;1.10;;;15.80;99.90;;;;;;4996246;28;20410;-80
2023/03/22 11:47:23;;;;;;;2.83;1.53;;;15.80;99.90;;;;;;5011136;28;20416;-80
2023/03/22 11:49:53;;;;;;;4.67;1.50;;;15.80;99.90;;;;;;4996085;28;20961;-80
2023/03/22 11:52:26;;;;;;;2.77;1.27;;;15.80;99.90;;;;;;4954576;28;20440;-80
2023/03/22 11:54:53;;;;;;;11.97;1.67;;;15.70;99.90;;;;;;4976389;28;20989;-81
2023/03/22 11:57:32;;;;;;;1.43;0.90;;;15.70;99.90;;;;;;4976487;28;20421;-81
2023/03/22 12:00:09;;;;;;;4.87;2.47;;;15.70;99.90;;;;;;5007835;28;20876;-81
2023/03/22 12:02:42;;;;;;;1.93;1.30;;;15.70;99.90;;;;;;4978610;28;20770;-80
2023/03/22 12:05:17;;;;;;;2.27;1.00;;;15.60;99.90;;;;;;4995836;28;20417;-80
2023/03/22 12:07:43;;;;;;;2.50;1.73;;;15.70;99.90;;;;;;4993103;28;20448;-80
2023/03/22 12:10:25;;;;;;;5.60;1.80;;;15.70;99.90;;;;;;5010440;28;20467;-82
2023/03/22 12:13:03;;;;;;;3.13;1.77;;;15.70;99.90;;;;;;4994557;28;20476;-80
2023/03/22 12:15:34;;;;;;;3.17;2.10;;;15.70;99.90;;;;;;4995679;28;20830;-80
2023/03/22 12:18:17;;;;;;;4.67;1.90;;;15.70;99.90;;;;;;4995769;28;20452;-80
2023/03/22 12:20:54;;;;;;;4.30;2.40;;;15.70;99.90;;;;;;5010024;28;20952;-81
2023/03/22 12:23:22;;;;;;;6.33;1.83;;;15.90;99.90;;;;;;4995208;28;20429;-82
2023/03/22 12:26:11;;;;;;;3.80;1.97;;;15.90;99.90;;;;;;4995667;28;20421;-79
2023/03/22 12:28:58;;;;;;;4.13;1.80;;;15.90;99.90;;;;;;4994239;28;20426;-80
2023/03/22 12:31:30;;;;;;;3.17;2.23;;;15.80;99.90;;;;;;4995274;28;20820;-80
2023/03/22 12:34:13;;;;;;;4.73;1.77;;;15.80;99.90;;;;;;4994282;28;20432;-81
2023/03/22 12:36:47;;;;;;;4.17;2.70;;;15.80;99.90;;;;;;4993660;28;20523;-81
2023/03/22 12:39:33;;;;;;;4.00;2.27;;;15.80;99.90;;;;;;4992978;28;20484;-80
2023/03/22 12:42:07;;;;;;;4.37;2.97;;;15.70;99.90;;;;;;4994025;28;20446;-80
2023/03/22 12:44:38;;;;;;;5.07;2.73;;;15.60;99.90;;;;;;4993884;28;20431;-79
2023/03/22 12:47:12;;;;;;;5.77;2.53;;;15.50;99.90;;;;;;4993192;28;20431;-82
2023/03/22 12:50:10;;;;;;;6.13;3.60;;;15.50;99.90;;;;;;4993639;28;20476;-80
2023/03/22 12:52:55;;;;;;;5.10;3.10;;;15.60;99.90;;;;;;4993397;28;20949;-81
2023/03/22 12:55:36;;;;;;;5.07;2.97;;;15.60;99.90;;;;;;4994829;28;20770;-80
2023/03/22 12:58:05;;;;;;;7.80;3.30;;;15.50;99.90;;;;;;4987617;28;20436;-80
2023/03/22 13:00:38;;;;;;;4.17;3.87;;;15.40;99.90;;;;;;4983670;28;20457;-80
2023/03/22 13:03:34;;;;;;;3.47;2.60;;;15.50;99.90;;;;;;4981086;28;20467;-80